Time;durP1;ratioP1;P1;durP2;ratioP2;P2;SDS_P1;SDS_P2;PMS_P1;PMS_P2;Temp;Humidity;BMP_temperature;BMP_pressure;BME280_temperature;BME280_humidity;BME280_pressure;Samples;Min_cycle;Max_cycle;Signal;HPM_P1;HPM_P2
2023/03/11 00:02:24;;;;;;;8.67;5.77;;;0.10;99.90;-0.90;97648;;;;567712;249;24048;-76
2023/03/11 00:04:53;;;;;;;20.73;12.37;;;0.10;99.90;-0.90;97652;;;;562412;249;34581;-75
2023/03/11 00:07:22;;;;;;;13.13;7.57;;;0.10;99.90;-0.90;97657;;;;563619;249;24026;-75
2023/03/11 00:09:49;;;;;;;6.63;5.23;;;0.10;99.90;-0.90;97647;;;;567133;249;24091;-74
2023/03/11 00:12:17;;;;;;;9.70;6.00;;;0.10;99.90;-0.90;97647;;;;567263;249;24040;-76
2023/03/11 00:14:45;;;;;;;11.33;6.23;;;0.10;99.90;-0.90;97654;;;;567547;249;24003;-75
2023/03/11 00:17:13;;;;;;;9.67;6.00;;;0.10;99.90;-0.90;97647;;;;567390;249;23993;-75
2023/03/11 00:19:41;;;;;;;11.70;6.93;;;0.10;99.90;-0.90;97646;;;;575886;248;24030;-74
2023/03/11 00:22:09;;;;;;;11.50;6.83;;;0.10;99.90;-0.90;97638;;;;567321;249;24048;-75
2023/03/11 00:24:37;;;;;;;9.67;7.13;;;0.10;99.90;-0.90;97634;;;;576555;248;24060;-74
2023/03/11 00:27:05;;;;;;;9.43;5.80;;;0.20;99.90;-0.90;97641;;;;566892;249;23990;-74
2023/03/11 00:29:33;;;;;;;11.73;6.53;;;0.10;99.90;-0.90;97638;;;;567067;249;24055;-74
2023/03/11 00:32:01;;;;;;;15.90;11.47;;;0.10;99.90;-0.90;97628;;;;566945;249;24043;-75
2023/03/11 00:34:29;;;;;;;19.20;14.27;;;0.10;99.90;-0.90;97635;;;;566818;249;23990;-75
2023/03/11 00:36:57;;;;;;;22.47;14.37;;;0.10;99.90;-0.90;97635;;;;562854;249;24022;-75
2023/03/11 00:39:26;;;;;;;16.30;12.50;;;0.10;99.90;-0.90;97633;;;;562796;249;23982;-77
2023/03/11 00:41:55;;;;;;;18.02;10.98;;;0.10;99.90;-0.90;97631;;;;557922;249;34492;-76
2023/03/11 00:44:22;;;;;;;8.53;6.80;;;0.10;99.90;-0.90;97628;;;;562687;249;24002;-78
2023/03/11 00:46:51;;;;;;;11.57;6.00;;;0.10;99.90;-0.90;97631;;;;567025;249;24052;-75
2023/03/11 00:49:18;;;;;;;11.00;6.40;;;0.20;99.90;-0.90;97627;;;;566670;249;24008;-77
2023/03/11 00:51:47;;;;;;;11.47;7.23;;;0.20;99.90;-0.80;97621;;;;566644;249;24002;-77
2023/03/11 00:54:15;;;;;;;10.43;6.73;;;0.20;99.90;-0.80;97627;;;;566714;249;24038;-77
2023/03/11 00:56:43;;;;;;;9.83;6.70;;;0.20;99.90;-0.80;97632;;;;566652;249;24031;-78
2023/03/11 00:59:11;;;;;;;10.70;6.53;;;0.20;99.90;-0.80;97625;;;;566637;249;24092;-76
2023/03/11 01:01:39;;;;;;;19.17;11.12;;;0.20;99.90;-0.90;97618;;;;561783;249;34380;-78
2023/03/11 01:04:07;;;;;;;10.43;6.47;;;0.10;99.90;-0.80;97621;;;;562786;249;24015;-76
2023/03/11 01:06:35;;;;;;;10.73;7.97;;;0.20;99.90;-0.80;97623;;;;566746;249;24049;-74
2023/03/11 01:09:04;;;;;;;10.47;6.40;;;0.20;99.90;-0.90;97618;;;;566608;249;23999;-75
2023/03/11 01:11:31;;;;;;;7.47;5.97;;;0.20;99.90;-0.90;97615;;;;567987;248;24054;-74
2023/03/11 01:13:59;;;;;;;7.90;5.73;;;0.20;99.90;-0.90;97619;;;;563903;249;24009;-75
2023/03/11 01:16:27;;;;;;;5.40;4.17;;;0.10;99.90;-0.90;97612;;;;567862;249;23986;-75
2023/03/11 01:18:55;;;;;;;8.47;5.37;;;0.10;99.90;-0.90;97629;;;;567733;249;23994;-74
2023/03/11 01:21:23;;;;;;;12.80;6.23;;;0.10;99.90;-0.90;97630;;;;567596;249;24052;-75
2023/03/11 01:23:51;;;;;;;12.17;8.47;;;0.10;99.90;-1.00;97630;;;;576237;248;24036;-75
2023/03/11 01:26:18;;;;;;;12.73;9.07;;;0.10;99.90;-1.00;97623;;;;576667;248;24030;-76
2023/03/11 01:28:46;;;;;;;12.83;10.23;;;0.00;99.90;-1.00;97626;;;;567200;249;23994;-75
2023/03/11 01:31:14;;;;;;;12.60;10.57;;;0.10;99.90;-1.00;97622;;;;563112;249;24008;-75
2023/03/11 01:33:42;;;;;;;12.90;9.83;;;0.00;99.90;-1.00;97620;;;;563021;249;23982;-75
2023/03/11 01:36:10;;;;;;;14.37;11.23;;;0.00;99.90;-1.00;97615;;;;566979;249;24048;-75
2023/03/11 01:38:39;;;;;;;15.33;10.70;;;0.00;99.90;-1.00;97619;;;;563014;249;24009;-75
2023/03/11 01:41:10;;;;;;;13.20;10.97;;;0.00;99.90;-1.00;97627;;;;563177;249;23998;-76
2023/03/11 01:43:44;;;;;;;15.33;11.53;;;0.00;99.90;-1.00;97626;;;;562978;249;24018;-76
2023/03/11 01:46:26;;;;;;;13.50;10.13;;;0.00;99.90;-1.00;97632;;;;567313;249;24097;-76
2023/03/11 01:48:54;;;;;;;17.45;14.13;;;0.10;99.90;-1.00;97611;;;;557983;249;34385;-75
2023/03/11 01:51:28;;;;;;;6.27;4.67;;;0.00;99.90;-1.00;97608;;;;574289;249;23989;-75
2023/03/11 01:54:00;;;;;;;6.10;4.67;;;0.00;99.90;-1.00;97614;;;;566606;249;24006;-75
2023/03/11 01:56:24;;;;;;;5.23;4.30;;;0.00;99.90;-1.00;97614;;;;566570;249;23997;-75
2023/03/11 01:58:52;;;;;;;7.53;6.77;;;0.00;99.90;-1.00;97611;;;;566873;249;24054;-75
2023/03/11 02:01:20;;;;;;;14.03;9.77;;;0.00;99.90;-1.00;97606;;;;567058;249;24014;-75
2023/03/11 02:03:48;;;;;;;14.37;10.23;;;0.00;99.90;-1.00;97608;;;;566733;249;24033;-75
2023/03/11 02:06:22;;;;;;;13.13;10.33;;;0.00;99.90;-1.10;97606;;;;562705;249;24012;-75
2023/03/11 02:08:53;;;;;;;12.90;10.87;;;0.00;99.90;-1.00;97605;;;;574484;249;23996;-75
2023/03/11 02:11:20;;;;;;;20.47;12.07;;;0.00;99.90;-1.00;97606;;;;566179;249;24025;-77
2023/03/11 02:13:48;;;;;;;16.33;10.83;;;0.00;99.90;-1.00;97608;;;;574443;249;24025;-76
2023/03/11 02:16:17;;;;;;;16.47;11.27;;;0.00;99.90;-1.00;97612;;;;566662;249;27221;-77
2023/03/11 02:18:48;;;;;;;15.60;11.20;;;0.00;99.90;-1.00;97612;;;;563151;249;25035;-75
2023/03/11 02:21:25;;;;;;;17.13;11.73;;;0.00;99.90;-1.00;97598;;;;562873;249;24051;-77
2023/03/11 02:24:17;;;;;;;13.90;11.00;;;0.00;99.90;-1.00;97611;;;;568427;249;24042;-78
2023/03/11 02:27:02;;;;;;;15.60;10.37;;;0.00;99.90;-1.00;97603;;;;565538;249;24034;-77
2023/03/11 02:29:30;;;;;;;13.93;10.87;;;0.00;99.90;-1.00;97606;;;;567316;249;24076;-75
2023/03/11 02:31:58;;;;;;;12.83;10.57;;;0.00;99.90;-1.00;97606;;;;567503;249;24045;-75
2023/03/11 02:34:29;;;;;;;15.10;9.87;;;0.00;99.90;-1.00;97602;;;;575735;248;24063;-76
2023/03/11 02:36:57;;;;;;;14.53;10.97;;;0.00;99.90;-1.00;97611;;;;567081;249;24046;-76
2023/03/11 02:39:33;;;;;;;13.47;9.10;;;0.00;99.90;-1.00;97609;;;;574869;249;24038;-75
2023/03/11 02:42:01;;;;;;;12.43;9.57;;;0.10;99.90;-1.00;97618;;;;562970;249;24009;-75
2023/03/11 02:44:29;;;;;;;11.87;9.43;;;0.10;99.90;-1.00;97621;;;;567006;249;24041;-77
2023/03/11 02:46:58;;;;;;;10.40;8.03;;;0.00;99.90;-1.00;97610;;;;566924;249;23995;-75
2023/03/11 02:49:30;;;;;;;14.47;9.77;;;0.00;99.90;-1.00;97614;;;;566982;249;24008;-76
2023/03/11 02:51:54;;;;;;;10.17;8.10;;;0.00;99.90;-1.00;97614;;;;566836;249;24078;-76
2023/03/11 02:54:22;;;;;;;13.43;9.63;;;0.00;99.90;-1.00;97621;;;;566898;249;24157;-75
2023/03/11 02:56:53;;;;;;;10.30;8.20;;;0.00;99.90;-1.00;97620;;;;567016;249;23999;-76
2023/03/11 02:59:18;;;;;;;7.60;6.73;;;0.00;99.90;-1.00;97629;;;;563074;249;24047;-76
2023/03/11 03:01:46;;;;;;;10.63;8.17;;;0.00;99.90;-1.00;97629;;;;575659;248;24009;-77
2023/03/11 03:04:14;;;;;;;10.13;7.43;;;0.00;99.90;-1.00;97634;;;;567037;249;24053;-77
2023/03/11 03:06:43;;;;;;;10.70;7.57;;;0.00;99.90;-1.00;97633;;;;567044;249;23985;-76
2023/03/11 03:09:11;;;;;;;12.93;8.40;;;0.00;99.90;-1.00;97638;;;;567082;249;23986;-76
2023/03/11 03:11:39;;;;;;;10.47;7.27;;;0.00;99.90;-1.00;97645;;;;567079;249;24040;-75
2023/03/11 03:14:06;;;;;;;11.43;7.57;;;0.00;99.90;-1.00;97644;;;;567038;249;24045;-76
2023/03/11 03:16:35;;;;;;;9.73;7.30;;;0.00;99.90;-1.00;97660;;;;567092;249;24002;-75
2023/03/11 03:19:03;;;;;;;9.03;7.53;;;0.00;99.90;-1.00;97640;;;;563852;249;24032;-75
2023/03/11 03:21:31;;;;;;;8.73;6.17;;;0.00;99.90;-1.10;97643;;;;566765;249;24018;-75
2023/03/11 03:23:59;;;;;;;9.60;7.93;;;0.00;99.90;-1.10;97649;;;;566593;249;24005;-78
2023/03/11 03:26:27;;;;;;;10.87;8.80;;;0.00;99.90;-1.10;97646;;;;566738;249;24010;-74
2023/03/11 03:28:55;;;;;;;14.60;8.97;;;-0.10;99.90;-1.10;97639;;;;575251;248;23991;-74
2023/03/11 03:31:23;;;;;;;11.13;7.53;;;0.00;99.90;-1.10;97644;;;;576108;248;24415;-75
2023/03/11 03:33:50;;;;;;;9.17;6.43;;;0.00;99.90;-1.10;97649;;;;567447;248;23993;-76
2023/03/11 03:36:18;;;;;;;9.23;6.83;;;0.00;99.90;-1.00;97652;;;;567976;249;23986;-75
2023/03/11 03:38:49;;;;;;;9.43;6.80;;;0.00;99.90;-1.00;97643;;;;567546;249;24012;-75
2023/03/11 03:41:17;;;;;;;7.63;6.30;;;0.00;99.90;-1.00;97648;;;;567270;249;24053;-75
2023/03/11 03:43:45;;;;;;;9.87;6.97;;;0.00;99.90;-1.10;97654;;;;576771;248;24002;-74
2023/03/11 03:46:13;;;;;;;13.15;10.25;;;-0.10;99.90;-1.10;97651;;;;562143;249;34393;-75
2023/03/11 03:48:41;;;;;;;9.43;3.47;;;0.00;99.90;-1.10;97635;;;;567233;249;24035;-74
2023/03/11 03:51:08;;;;;;;4.60;3.17;;;0.00;99.90;-1.10;97637;;;;567047;249;24044;-79
2023/03/11 03:53:37;;;;;;;3.17;2.57;;;0.00;99.90;-1.10;97651;;;;566810;249;24013;-75
2023/03/11 03:56:11;;;;;;;2.73;2.03;;;0.00;99.90;-1.10;97666;;;;575471;248;23990;-77
2023/03/11 03:58:39;;;;;;;8.43;5.57;;;-0.10;99.90;-1.10;97663;;;;561863;249;34298;-77
2023/03/11 04:01:06;;;;;;;3.60;3.30;;;-0.10;99.90;-1.10;97649;;;;567226;249;24066;-77
2023/03/11 04:03:39;;;;;;;2.43;2.20;;;-0.10;99.90;-1.10;97661;;;;567282;249;24089;-74
2023/03/11 04:06:19;;;;;;;3.03;2.63;;;0.00;99.90;-1.10;97660;;;;576682;247;24019;-77
2023/03/11 04:08:47;;;;;;;1.93;1.77;;;-0.10;99.90;-1.10;97674;;;;567276;249;24011;-80
2023/03/11 04:11:15;;;;;;;1.97;1.73;;;-0.10;99.90;-1.10;97671;;;;567062;249;24099;-78
2023/03/11 04:13:43;;;;;;;2.43;2.13;;;-0.10;99.90;-1.10;97679;;;;566968;249;24012;-77
2023/03/11 04:16:11;;;;;;;2.10;2.00;;;-0.10;99.90;-1.10;97665;;;;567034;249;23994;-75
2023/03/11 04:18:39;;;;;;;4.83;4.20;;;-0.10;99.90;-1.10;97660;;;;565162;249;24037;-76
2023/03/11 04:21:07;;;;;;;5.13;4.23;;;-0.10;99.90;-1.10;97673;;;;566634;249;24037;-78
2023/03/11 04:23:36;;;;;;;6.63;5.63;;;-0.10;99.90;-1.20;97666;;;;566730;249;24011;-78
2023/03/11 04:26:03;;;;;;;6.33;5.40;;;-0.10;99.90;-1.20;97671;;;;566587;249;24044;-79
2023/03/11 04:28:31;;;;;;;5.87;4.83;;;-0.10;99.90;-1.20;97676;;;;566821;249;24010;-76
2023/03/11 04:30:59;;;;;;;6.60;5.20;;;-0.10;99.90;-1.10;97667;;;;562864;249;24026;-76
2023/03/11 04:33:27;;;;;;;4.77;4.23;;;-0.10;99.90;-1.20;97672;;;;576341;248;23995;-76
2023/03/11 04:35:55;;;;;;;6.47;5.23;;;-0.20;99.90;-1.20;97674;;;;563785;249;24056;-77
2023/03/11 04:38:24;;;;;;;5.27;4.40;;;-0.10;99.90;-1.20;97681;;;;566639;249;24034;-74
2023/03/11 04:40:52;;;;;;;6.33;4.87;;;-0.20;99.90;-1.10;97681;;;;575292;248;23979;-76
2023/03/11 04:43:20;;;;;;;6.17;4.10;;;-0.20;99.90;-1.10;97673;;;;566739;249;24059;-77
2023/03/11 04:45:48;;;;;;;3.93;3.57;;;-0.20;99.90;-1.20;97678;;;;567854;248;23984;-77
2023/03/11 04:48:15;;;;;;;3.73;3.37;;;-0.20;99.90;-1.20;97689;;;;567919;249;24048;-78
2023/03/11 04:50:43;;;;;;;5.20;3.67;;;-0.20;99.90;-1.20;97699;;;;567553;249;24088;-75
2023/03/11 04:53:11;;;;;;;4.97;3.50;;;-0.20;99.90;-1.10;97717;;;;567514;249;24087;-75
2023/03/11 04:55:40;;;;;;;4.93;4.30;;;-0.10;99.90;-1.10;97714;;;;567280;249;24160;-80
2023/03/11 04:58:07;;;;;;;5.93;3.33;;;-0.20;99.90;-1.10;97706;;;;567250;249;23989;-76
2023/03/11 05:00:35;;;;;;;5.00;4.33;;;-0.20;99.90;-1.20;97701;;;;567208;249;24021;-77
2023/03/11 05:03:03;;;;;;;5.73;3.53;;;-0.10;99.90;-1.20;97718;;;;576157;248;24132;-76
2023/03/11 05:05:31;;;;;;;7.87;4.63;;;-0.20;99.90;-1.20;97733;;;;566995;249;24019;-76
2023/03/11 05:07:59;;;;;;;6.30;4.03;;;-0.20;99.90;-1.20;97726;;;;566963;249;24013;-77
2023/03/11 05:10:27;;;;;;;5.93;4.30;;;-0.20;99.90;-1.20;97728;;;;566992;249;24001;-76
2023/03/11 05:12:55;;;;;;;4.07;3.73;;;-0.20;99.90;-1.20;97730;;;;566892;249;24232;-77
2023/03/11 05:15:22;;;;;;;8.83;4.63;;;-0.20;99.90;-1.20;97731;;;;567106;249;24018;-75
2023/03/11 05:17:51;;;;;;;5.07;3.97;;;-0.20;99.90;-1.20;97724;;;;566923;249;24032;-78
2023/03/11 05:20:20;;;;;;;3.97;3.30;;;-0.20;99.90;-1.20;97716;;;;567374;249;23993;-78
2023/03/11 05:22:48;;;;;;;5.17;3.60;;;-0.20;99.90;-1.20;97719;;;;567097;249;23984;-78
2023/03/11 05:25:16;;;;;;;5.30;4.13;;;-0.20;99.90;-1.20;97730;;;;567138;249;24039;-79
2023/03/11 05:27:43;;;;;;;6.80;4.50;;;-0.20;99.90;-1.20;97729;;;;567075;249;23991;-78
2023/03/11 05:30:14;;;;;;;6.13;4.73;;;-0.20;99.90;-1.10;97738;;;;567056;249;24065;-75
2023/03/11 05:32:40;;;;;;;4.27;3.87;;;-0.20;99.90;-1.10;97743;;;;563142;249;24027;-77
2023/03/11 05:35:08;;;;;;;8.07;3.37;;;-0.20;99.90;-1.20;97740;;;;575332;248;24024;-77
2023/03/11 05:37:38;;;;;;;6.00;4.03;;;-0.20;99.90;-1.20;97746;;;;566649;249;24018;-77
2023/03/11 05:40:06;;;;;;;6.30;4.10;;;-0.20;99.90;-1.20;97741;;;;566774;249;24034;-78
2023/03/11 05:42:33;;;;;;;5.50;4.57;;;-0.20;99.90;-1.20;97751;;;;566601;249;23990;-78
2023/03/11 05:45:01;;;;;;;7.70;4.37;;;-0.20;99.90;-1.10;97759;;;;566799;249;24059;-79
2023/03/11 05:47:28;;;;;;;9.00;4.97;;;-0.20;99.90;-1.10;97762;;;;566796;249;24057;-79
2023/03/11 05:49:56;;;;;;;4.43;3.97;;;-0.20;99.90;-1.10;97773;;;;566627;249;24038;-79
2023/03/11 05:52:24;;;;;;;5.77;4.30;;;-0.20;99.90;-1.10;97777;;;;566795;249;24014;-79
2023/03/11 05:54:55;;;;;;;8.10;4.50;;;-0.20;99.90;-1.10;97775;;;;566681;249;23998;-79
2023/03/11 05:57:20;;;;;;;9.27;7.47;;;-0.10;99.90;-1.10;97789;;;;572026;247;45206;-78
2023/03/11 05:59:48;;;;;;;1.33;1.17;;;-0.10;99.90;-1.10;97791;;;;567831;249;23997;-79
2023/03/11 06:02:16;;;;;;;1.17;1.17;;;-0.10;99.90;-1.10;97798;;;;567621;249;24040;-80
2023/03/11 06:04:44;;;;;;;1.50;1.33;;;-0.10;99.90;-1.10;97806;;;;567506;249;24095;-79
2023/03/11 06:07:13;;;;;;;0.93;0.90;;;-0.10;99.90;-1.10;97812;;;;567185;249;24023;-78
2023/03/11 06:09:40;;;;;;;5.82;2.45;;;-0.10;99.90;-1.10;97802;;;;562356;249;34270;-77
2023/03/11 06:12:08;;;;;;;1.10;1.10;;;-0.10;99.90;-1.10;97815;;;;567220;249;24005;-75
2023/03/11 06:14:37;;;;;;;1.73;1.53;;;-0.10;99.90;-1.10;97822;;;;567287;249;24028;-75
2023/03/11 06:17:04;;;;;;;1.20;1.17;;;-0.10;99.90;-1.10;97828;;;;566988;249;23997;-74
2023/03/11 06:19:33;;;;;;;0.40;0.40;;;-0.10;99.90;-1.10;97828;;;;566893;249;24045;-78
2023/03/11 06:22:01;;;;;;;2.43;0.73;;;-0.10;99.90;-1.10;97839;;;;567351;249;24016;-79
2023/03/11 06:24:29;;;;;;;1.17;1.00;;;-0.10;99.90;-1.10;97843;;;;563538;249;23996;-75
2023/03/11 06:26:57;;;;;;;1.00;0.97;;;-0.10;99.90;-1.10;97845;;;;567367;249;24065;-75
2023/03/11 06:29:25;;;;;;;2.73;1.97;;;-0.10;99.90;-1.10;97853;;;;567344;249;24020;-77
2023/03/11 06:31:54;;;;;;;5.57;4.27;;;-0.10;99.90;-1.00;97867;;;;567335;249;23997;-75
2023/03/11 06:34:22;;;;;;;6.07;5.10;;;-0.10;99.90;-1.00;97854;;;;567066;249;25133;-75
2023/03/11 06:36:50;;;;;;;6.03;4.27;;;-0.10;99.90;-1.00;97843;;;;566686;249;24053;-75
2023/03/11 06:39:18;;;;;;;4.73;3.73;;;-0.10;99.90;-1.00;97861;;;;566653;249;24010;-75
2023/03/11 06:41:45;;;;;;;4.63;3.73;;;0.00;99.90;-1.00;97859;;;;566727;249;24022;-73
2023/03/11 06:44:13;;;;;;;6.63;4.87;;;0.00;99.90;-1.00;97864;;;;567205;249;24043;-75
2023/03/11 06:46:41;;;;;;;4.40;3.50;;;0.00;99.90;-1.00;97872;;;;566783;249;23982;-76
2023/03/11 06:49:09;;;;;;;6.13;3.17;;;0.00;99.90;-1.00;97878;;;;566801;249;24022;-73
2023/03/11 06:51:37;;;;;;;4.93;3.33;;;0.00;99.90;-1.00;97881;;;;567261;249;24026;-75
2023/03/11 06:54:05;;;;;;;5.73;4.10;;;0.00;99.90;-1.00;97893;;;;567118;249;24022;-75
2023/03/11 06:56:33;;;;;;;4.80;3.80;;;-0.10;99.90;-1.00;97888;;;;563179;249;24001;-76
2023/03/11 06:59:01;;;;;;;4.03;3.67;;;-0.10;99.90;-1.00;97886;;;;566927;249;24050;-76
2023/03/11 07:01:29;;;;;;;5.10;3.70;;;0.00;99.90;-1.00;97897;;;;567077;249;23979;-76
2023/03/11 07:03:57;;;;;;;5.73;4.20;;;-0.10;99.90;-1.00;97902;;;;567050;249;24043;-76
2023/03/11 07:06:25;;;;;;;5.77;4.57;;;0.00;99.90;-1.00;97903;;;;566889;249;23998;-75
2023/03/11 07:08:53;;;;;;;8.00;4.97;;;-0.10;99.90;-1.00;97907;;;;576524;248;24041;-76
2023/03/11 07:11:24;;;;;;;9.47;4.53;;;-0.10;99.90;-1.00;97923;;;;576660;248;24001;-73
2023/03/11 07:13:52;;;;;;;9.67;4.83;;;-0.10;99.90;-1.00;97920;;;;567660;249;23998;-75
2023/03/11 07:16:20;;;;;;;8.67;4.60;;;-0.10;99.90;-1.00;97933;;;;567718;249;23996;-75
2023/03/11 07:18:48;;;;;;;9.80;5.37;;;-0.10;99.90;-1.00;97931;;;;567804;249;24032;-76
2023/03/11 07:21:16;;;;;;;11.43;5.43;;;0.00;99.90;-0.90;97941;;;;576716;246;24098;-75
2023/03/11 07:23:45;;;;;;;5.20;4.30;;;0.10;99.90;-0.90;97941;;;;567640;249;24019;-75
2023/03/11 07:26:13;;;;;;;4.43;2.90;;;0.20;99.90;-0.80;97946;;;;567523;249;24016;-74
2023/03/11 07:28:41;;;;;;;5.23;4.47;;;0.20;99.90;-0.80;97948;;;;567464;249;23995;-75
2023/03/11 07:31:09;;;;;;;7.67;4.73;;;0.20;99.90;-0.70;97964;;;;576883;248;24044;-74
2023/03/11 07:33:37;;;;;;;4.13;3.03;;;0.30;99.90;-0.70;97961;;;;567375;249;24015;-75
2023/03/11 07:36:08;;;;;;;4.70;4.17;;;0.30;99.90;-0.70;97973;;;;567402;249;24001;-74
2023/03/11 07:38:36;;;;;;;4.33;3.93;;;0.40;99.90;-0.70;97976;;;;576533;246;24020;-74
2023/03/11 07:41:04;;;;;;;3.60;3.30;;;0.30;99.90;-0.70;97978;;;;562453;249;24018;-75
2023/03/11 07:43:32;;;;;;;3.77;3.07;;;0.30;99.90;-0.70;97977;;;;563973;249;25125;-75
2023/03/11 07:46:06;;;;;;;6.03;4.40;;;0.30;99.90;-0.70;97981;;;;562113;249;23991;-76
2023/03/11 07:48:34;;;;;;;4.07;3.67;;;0.30;99.90;-0.70;97985;;;;563001;249;24029;-75
2023/03/11 07:51:04;;;;;;;6.63;4.20;;;0.30;99.90;-0.80;97983;;;;570288;249;23987;-75
2023/03/11 07:53:35;;;;;;;5.37;4.10;;;0.30;99.90;-0.80;97990;;;;567065;249;24012;-76
2023/03/11 07:56:04;;;;;;;7.40;3.07;;;0.20;99.90;-0.80;97997;;;;566394;249;24013;-77
2023/03/11 07:58:29;;;;;;;4.27;3.53;;;0.20;99.90;-0.80;97993;;;;566387;249;24056;-76
2023/03/11 08:00:57;;;;;;;8.43;6.20;;;0.20;99.90;-0.80;98002;;;;558287;249;34369;-76
2023/03/11 08:03:25;;;;;;;1.20;1.20;;;0.20;99.90;-0.80;98013;;;;567068;249;24107;-75
2023/03/11 08:05:53;;;;;;;1.57;1.47;;;0.20;99.90;-0.80;98012;;;;567049;249;24119;-74
2023/03/11 08:08:21;;;;;;;1.60;1.50;;;0.30;99.90;-0.80;98024;;;;567063;249;23992;-75
2023/03/11 08:10:48;;;;;;;2.07;1.97;;;0.30;99.90;-0.80;98039;;;;567055;249;24087;-75
2023/03/11 08:13:16;;;;;;;5.50;1.77;;;0.30;99.90;-0.80;98046;;;;567102;249;24000;-76
2023/03/11 08:15:44;;;;;;;1.53;1.30;;;0.30;99.90;-0.80;98043;;;;566999;249;24044;-75
2023/03/11 08:18:12;;;;;;;2.10;1.10;;;0.30;99.90;-0.80;98052;;;;567089;249;24049;-75
2023/03/11 08:20:40;;;;;;;3.63;2.53;;;0.30;99.90;-0.80;98053;;;;568079;248;24052;-76
2023/03/11 08:23:08;;;;;;;7.33;3.67;;;0.20;99.90;-0.70;98066;;;;568179;249;23995;-74
2023/03/11 08:25:36;;;;;;;4.83;3.00;;;0.30;99.90;-0.70;98068;;;;567503;249;24080;-74
2023/03/11 08:28:07;;;;;;;5.27;4.50;;;0.30;99.90;-0.70;98071;;;;567330;249;25084;-75
2023/03/11 08:30:32;;;;;;;4.50;3.93;;;0.30;99.90;-0.70;98076;;;;566877;249;25054;-75
2023/03/11 08:33:00;;;;;;;4.37;3.03;;;0.30;99.90;-0.70;98080;;;;575763;248;24032;-75
2023/03/11 08:35:27;;;;;;;3.53;2.93;;;0.30;99.90;-0.70;98080;;;;567329;249;24045;-73
2023/03/11 08:37:55;;;;;;;3.93;3.53;;;0.30;99.90;-0.70;98090;;;;567149;249;24010;-75
2023/03/11 08:40:23;;;;;;;3.60;2.90;;;0.30;99.90;-0.70;98089;;;;563495;249;24081;-76
2023/03/11 08:42:51;;;;;;;5.10;4.10;;;0.30;99.90;-0.70;98099;;;;563282;249;24112;-74
2023/03/11 08:45:19;;;;;;;4.77;4.00;;;0.40;99.90;-0.70;98102;;;;567310;249;25056;-74
2023/03/11 08:47:47;;;;;;;3.80;3.30;;;0.30;99.90;-0.70;98100;;;;567309;249;23996;-74
2023/03/11 08:50:15;;;;;;;2.97;2.60;;;0.30;99.90;-0.60;98102;;;;567292;249;24007;-75
2023/03/11 08:52:43;;;;;;;4.10;3.20;;;0.40;99.90;-0.60;98100;;;;567243;249;24087;-74
2023/03/11 08:55:11;;;;;;;3.90;2.60;;;0.40;99.90;-0.50;98111;;;;563406;249;24008;-74
2023/03/11 08:57:42;;;;;;;3.03;2.67;;;0.50;99.90;-0.50;98114;;;;566760;249;24075;-77
2023/03/11 09:00:08;;;;;;;3.07;2.27;;;0.50;99.90;-0.50;98119;;;;566877;249;23997;-75
2023/03/11 09:02:35;;;;;;;2.37;2.20;;;0.60;99.90;-0.50;98125;;;;567056;249;24072;-74
2023/03/11 09:05:06;;;;;;;2.30;2.03;;;0.60;99.90;-0.60;98124;;;;567006;249;24051;-75
2023/03/11 09:07:32;;;;;;;5.07;2.63;;;0.50;99.90;-0.60;98119;;;;566928;249;24132;-74
2023/03/11 09:10:00;;;;;;;3.00;2.20;;;0.50;99.90;-0.60;98126;;;;567032;249;24039;-75
2023/03/11 09:12:29;;;;;;;7.20;3.30;;;0.40;99.90;-0.60;98137;;;;567024;249;24061;-76
2023/03/11 09:14:56;;;;;;;4.20;2.80;;;0.40;99.90;-0.60;98144;;;;566954;249;24003;-77
2023/03/11 09:17:24;;;;;;;3.83;2.57;;;0.40;99.90;-0.60;98149;;;;563975;249;24034;-77
2023/03/11 09:19:52;;;;;;;2.78;2.42;;;2.50;99.90;-0.60;98156;;;;562026;249;34400;-74
2023/03/11 09:22:19;;;;;;;0.93;0.90;;;0.50;99.90;-0.50;98172;;;;567022;249;24112;-74
2023/03/11 09:24:47;;;;;;;2.90;1.33;;;0.50;99.90;-0.40;98173;;;;566992;249;24002;-75
2023/03/11 09:27:15;;;;;;;2.37;0.70;;;0.60;99.90;-0.30;98171;;;;566605;249;23990;-74
2023/03/11 09:29:43;;;;;;;0.73;0.73;;;0.70;99.90;-0.20;98180;;;;566715;249;24024;-74
2023/03/11 09:32:13;;;;;;;1.77;1.67;;;0.80;99.90;-0.20;98186;;;;567588;248;24087;-73
2023/03/11 09:34:41;;;;;;;2.40;2.20;;;0.80;99.90;-0.20;98185;;;;567911;249;24012;-76
2023/03/11 09:37:09;;;;;;;1.07;0.80;;;0.80;99.90;-0.30;98195;;;;567530;249;24109;-76
2023/03/11 09:39:37;;;;;;;1.90;1.67;;;0.70;99.90;-0.30;98199;;;;567353;249;24099;-76
2023/03/11 09:42:32;;;;;;;5.33;2.43;;;0.80;99.90;-0.30;98196;;;;577112;248;24004;-78
2023/03/11 09:45:03;;;;;;;2.33;2.20;;;0.70;99.90;-0.30;98195;;;;567587;249;24003;-79
2023/03/11 09:48:00;;;;;;;1.03;1.03;;;0.70;99.90;-0.30;98207;;;;562913;249;24021;-77
2023/03/11 09:50:34;;;;;;;2.10;1.00;;;0.70;99.90;-0.30;98217;;;;567295;249;24058;-76
2023/03/11 09:53:24;;;;;;;1.80;1.63;;;0.70;99.90;-0.30;98210;;;;576222;247;24031;-77
2023/03/11 09:55:58;;;;;;;0.53;0.53;;;0.70;99.90;-0.20;98229;;;;567178;249;24000;-72
2023/03/11 09:58:44;;;;;;;1.43;1.00;;;0.80;99.90;-0.20;98230;;;;567062;249;24012;-78
2023/03/11 10:01:15;;;;;;;1.47;1.00;;;0.80;99.90;-0.10;98233;;;;564289;249;24014;-73
2023/03/11 10:03:43;;;;;;;1.60;1.17;;;0.80;99.90;-0.20;98234;;;;575276;249;24024;-73
2023/03/11 10:06:16;;;;;;;0.97;0.97;;;0.80;99.90;-0.20;98233;;;;567002;249;23992;-75
2023/03/11 10:08:47;;;;;;;0.83;0.83;;;0.80;99.90;0.00;98249;;;;562855;249;24046;-72
2023/03/11 10:12:01;;;;;;;1.80;0.87;;;0.90;99.90;0.00;98254;;;;566342;249;24077;-78
2023/03/11 10:15:05;;;;;;;0.97;0.97;;;1.00;99.90;0.00;98264;;;;567009;249;24040;-74
2023/03/11 10:17:58;;;;;;;0.80;0.80;;;1.00;99.90;-0.10;98266;;;;567047;249;24052;-76
2023/03/11 10:20:50;;;;;;;1.63;1.47;;;0.90;99.90;-0.10;98275;;;;566635;249;24009;-77
2023/03/11 10:23:42;;;;;;;1.43;1.17;;;0.90;99.90;0.00;98269;;;;575855;247;23994;-78
2023/03/11 10:26:37;;;;;;;2.10;1.43;;;0.90;99.90;0.10;98285;;;;566799;249;23994;-80
2023/03/11 10:29:19;;;;;;;1.30;1.20;;;1.00;99.90;0.20;98275;;;;566889;249;24020;-77
2023/03/11 10:32:06;;;;;;;0.97;0.93;;;1.30;99.90;0.30;98289;;;;564126;249;24039;-77
2023/03/11 10:34:49;;;;;;;1.40;1.30;;;1.30;99.90;0.50;98292;;;;566466;249;23987;-78
2023/03/11 10:37:30;;;;;;;0.63;0.63;;;1.50;99.90;0.50;98299;;;;564974;249;24042;-76
2023/03/11 10:39:59;;;;;;;10.13;2.93;;;1.40;99.90;0.40;98293;;;;562431;249;24034;-79
2023/03/11 10:42:26;;;;;;;3.23;1.23;;;1.40;99.90;0.40;98290;;;;564892;247;24013;-78
2023/03/11 10:44:54;;;;;;;3.90;2.37;;;1.40;99.90;0.50;98316;;;;568151;249;24028;-75
2023/03/11 10:47:23;;;;;;;3.17;2.80;;;1.50;99.90;0.50;98309;;;;567869;249;24102;-78
2023/03/11 10:49:51;;;;;;;2.90;2.13;;;1.50;99.90;0.50;98304;;;;567485;249;24035;-79
2023/03/11 10:52:18;;;;;;;2.30;1.50;;;1.50;99.90;0.60;98308;;;;567466;249;24051;-77
2023/03/11 10:54:46;;;;;;;1.57;1.33;;;1.60;99.90;0.70;98315;;;;567225;249;24004;-73
2023/03/11 10:57:26;;;;;;;4.20;2.70;;;1.70;99.90;0.70;98318;;;;567255;249;24017;-73
2023/03/11 11:00:15;;;;;;;3.90;1.47;;;1.70;99.90;0.60;98329;;;;563303;249;24009;-75
2023/03/11 11:02:39;;;;;;;1.43;1.33;;;1.60;99.90;0.50;98330;;;;566793;249;24075;-75
2023/03/11 11:05:20;;;;;;;1.00;1.00;;;1.60;99.90;0.30;98329;;;;566875;249;23995;-74
2023/03/11 11:07:52;;;;;;;2.47;1.67;;;1.40;99.90;0.20;98341;;;;563122;249;25023;-74
2023/03/11 11:10:24;;;;;;;2.87;2.67;;;1.30;99.90;0.20;98332;;;;566822;249;23995;-76
2023/03/11 11:12:58;;;;;;;2.23;1.63;;;1.20;99.90;0.30;98355;;;;566930;249;24009;-75
2023/03/11 11:15:31;;;;;;;3.13;2.20;;;1.30;99.90;0.30;98358;;;;576145;247;24072;-74
2023/03/11 11:18:06;;;;;;;2.67;2.07;;;1.40;99.90;0.40;98360;;;;567024;249;24012;-75
2023/03/11 11:20:36;;;;;;;2.07;1.80;;;1.40;99.90;0.50;98357;;;;566170;249;24039;-75
2023/03/11 11:23:01;;;;;;;2.30;2.10;;;1.50;99.90;0.60;98368;;;;566640;249;24014;-77
2023/03/11 11:25:35;;;;;;;2.37;1.70;;;1.60;99.90;0.50;98364;;;;566660;249;24053;-76
2023/03/11 11:28:04;;;;;;;5.83;1.73;;;1.60;99.90;0.40;98360;;;;566728;249;24018;-78
2023/03/11 11:30:31;;;;;;;1.80;1.50;;;1.50;99.90;0.40;98358;;;;566420;249;25141;-75
2023/03/11 11:32:59;;;;;;;1.77;1.37;;;1.50;99.90;0.40;98375;;;;567034;249;24000;-75
2023/03/11 11:35:28;;;;;;;1.57;1.47;;;1.50;99.90;0.40;98378;;;;567061;249;24094;-75